sensor_id;sensor_type;location;lat;lon;timestamp;P1;durP1;ratioP1;P2;durP2;ratioP2
65855;SDS011;52631;42.208;24.656;2023-05-29T00:00:42;6.18;;;2.80;;
65855;SDS011;52631;42.208;24.656;2023-05-29T00:03:07;5.25;;;2.75;;
65855;SDS011;52631;42.208;24.656;2023-05-29T00:05:34;6.30;;;3.00;;
65855;SDS011;52631;42.208;24.656;2023-05-29T00:08:00;5.95;;;3.30;;
65855;SDS011;52631;42.208;24.656;2023-05-29T00:10:25;6.88;;;3.05;;
65855;SDS011;52631;42.208;24.656;2023-05-29T00:12:51;7.28;;;3.30;;
65855;SDS011;52631;42.208;24.656;2023-05-29T00:15:16;6.68;;;3.15;;
65855;SDS011;52631;42.208;24.656;2023-05-29T00:17:42;8.48;;;3.35;;
65855;SDS011;52631;42.208;24.656;2023-05-29T00:20:08;10.48;;;3.83;;
65855;SDS011;52631;42.208;24.656;2023-05-29T00:22:37;7.65;;;3.30;;
65855;SDS011;52631;42.208;24.656;2023-05-29T00:25:05;8.10;;;3.75;;
65855;SDS011;52631;42.208;24.656;2023-05-29T00:27:31;9.18;;;4.05;;
65855;SDS011;52631;42.208;24.656;2023-05-29T00:29:58;8.57;;;3.72;;
65855;SDS011;52631;42.208;24.656;2023-05-29T00:32:23;6.95;;;4.22;;
65855;SDS011;52631;42.208;24.656;2023-05-29T00:34:49;8.25;;;4.00;;
65855;SDS011;52631;42.208;24.656;2023-05-29T00:37:15;12.13;;;4.40;;
65855;SDS011;52631;42.208;24.656;2023-05-29T00:39:40;6.78;;;4.07;;
65855;SDS011;52631;42.208;24.656;2023-05-29T00:42:06;9.00;;;4.82;;
65855;SDS011;52631;42.208;24.656;2023-05-29T00:44:32;8.15;;;4.43;;
65855;SDS011;52631;42.208;24.656;2023-05-29T00:46:57;9.18;;;3.95;;
65855;SDS011;52631;42.208;24.656;2023-05-29T00:49:23;7.75;;;3.97;;
65855;SDS011;52631;42.208;24.656;2023-05-29T00:51:49;12.00;;;4.40;;
65855;SDS011;52631;42.208;24.656;2023-05-29T00:54:17;6.47;;;4.20;;
65855;SDS011;52631;42.208;24.656;2023-05-29T00:56:46;6.88;;;3.90;;
65855;SDS011;52631;42.208;24.656;2023-05-29T00:59:12;9.30;;;3.47;;
65855;SDS011;52631;42.208;24.656;2023-05-29T01:01:38;9.48;;;3.95;;
65855;SDS011;52631;42.208;24.656;2023-05-29T01:04:05;6.28;;;3.65;;
65855;SDS011;52631;42.208;24.656;2023-05-29T01:06:33;6.90;;;3.55;;
65855;SDS011;52631;42.208;24.656;2023-05-29T01:09:00;10.52;;;3.90;;
65855;SDS011;52631;42.208;24.656;2023-05-29T01:11:31;9.40;;;3.88;;
65855;SDS011;52631;42.208;24.656;2023-05-29T01:14:29;6.85;;;3.75;;
65855;SDS011;52631;42.208;24.656;2023-05-29T01:17:13;10.07;;;3.50;;
65855;SDS011;52631;42.208;24.656;2023-05-29T01:28:15;8.70;;;3.40;;
65855;SDS011;52631;42.208;24.656;2023-05-29T01:30:45;6.82;;;3.55;;
65855;SDS011;52631;42.208;24.656;2023-05-29T01:33:11;7.80;;;3.33;;
65855;SDS011;52631;42.208;24.656;2023-05-29T01:35:37;7.28;;;3.80;;
65855;SDS011;52631;42.208;24.656;2023-05-29T01:38:02;6.53;;;4.10;;
65855;SDS011;52631;42.208;24.656;2023-05-29T01:40:28;7.07;;;3.70;;
65855;SDS011;52631;42.208;24.656;2023-05-29T01:42:53;11.90;;;4.22;;
65855;SDS011;52631;42.208;24.656;2023-05-29T01:45:19;7.53;;;3.60;;
65855;SDS011;52631;42.208;24.656;2023-05-29T01:47:45;6.60;;;4.10;;
65855;SDS011;52631;42.208;24.656;2023-05-29T01:50:11;7.45;;;3.97;;
65855;SDS011;52631;42.208;24.656;2023-05-29T01:52:38;8.60;;;4.22;;
65855;SDS011;52631;42.208;24.656;2023-05-29T01:55:05;9.38;;;5.28;;
65855;SDS011;52631;42.208;24.656;2023-05-29T01:57:31;10.38;;;4.53;;
65855;SDS011;52631;42.208;24.656;2023-05-29T01:59:57;8.93;;;5.32;;
65855;SDS011;52631;42.208;24.656;2023-05-29T02:02:22;10.68;;;5.85;;
65855;SDS011;52631;42.208;24.656;2023-05-29T02:04:48;9.70;;;4.50;;
65855;SDS011;52631;42.208;24.656;2023-05-29T02:07:13;10.63;;;4.97;;
65855;SDS011;52631;42.208;24.656;2023-05-29T02:09:40;8.40;;;3.95;;
65855;SDS011;52631;42.208;24.656;2023-05-29T02:12:06;10.05;;;4.60;;
65855;SDS011;52631;42.208;24.656;2023-05-29T02:14:32;10.35;;;4.43;;
65855;SDS011;52631;42.208;24.656;2023-05-29T02:16:58;9.57;;;4.95;;
65855;SDS011;52631;42.208;24.656;2023-05-29T02:19:24;9.80;;;5.35;;
65855;SDS011;52631;42.208;24.656;2023-05-29T02:21:53;12.05;;;4.55;;
65855;SDS011;52631;42.208;24.656;2023-05-29T02:24:18;9.30;;;4.80;;
65855;SDS011;52631;42.208;24.656;2023-05-29T02:26:43;10.90;;;4.78;;
65855;SDS011;52631;42.208;24.656;2023-05-29T02:29:10;11.95;;;5.68;;
65855;SDS011;52631;42.208;24.656;2023-05-29T02:31:36;12.10;;;5.35;;
65855;SDS011;52631;42.208;24.656;2023-05-29T02:34:01;12.00;;;5.63;;
65855;SDS011;52631;42.208;24.656;2023-05-29T02:36:27;12.60;;;6.32;;
65855;SDS011;52631;42.208;24.656;2023-05-29T02:38:52;13.18;;;5.97;;
65855;SDS011;52631;42.208;24.656;2023-05-29T02:41:18;12.63;;;5.80;;
65855;SDS011;52631;42.208;24.656;2023-05-29T02:43:43;11.48;;;5.82;;
65855;SDS011;52631;42.208;24.656;2023-05-29T02:46:09;9.70;;;5.75;;
65855;SDS011;52631;42.208;24.656;2023-05-29T02:48:34;12.00;;;6.03;;
65855;SDS011;52631;42.208;24.656;2023-05-29T02:51:00;12.25;;;5.95;;
65855;SDS011;52631;42.208;24.656;2023-05-29T02:53:25;11.35;;;6.30;;
65855;SDS011;52631;42.208;24.656;2023-05-29T02:55:51;12.38;;;5.50;;
65855;SDS011;52631;42.208;24.656;2023-05-29T02:58:17;9.15;;;4.90;;
65855;SDS011;52631;42.208;24.656;2023-05-29T03:00:42;9.60;;;4.78;;
65855;SDS011;52631;42.208;24.656;2023-05-29T03:03:08;8.73;;;4.70;;
65855;SDS011;52631;42.208;24.656;2023-05-29T03:05:34;8.50;;;4.72;;
65855;SDS011;52631;42.208;24.656;2023-05-29T03:07:59;9.50;;;4.82;;
65855;SDS011;52631;42.208;24.656;2023-05-29T03:10:25;9.27;;;4.75;;
65855;SDS011;52631;42.208;24.656;2023-05-29T03:12:50;7.28;;;3.80;;
65855;SDS011;52631;42.208;24.656;2023-05-29T03:15:16;8.23;;;4.50;;
65855;SDS011;52631;42.208;24.656;2023-05-29T03:17:45;15.75;;;5.18;;
65855;SDS011;52631;42.208;24.656;2023-05-29T03:20:11;8.65;;;4.43;;
65855;SDS011;52631;42.208;24.656;2023-05-29T03:22:36;7.05;;;3.97;;
65855;SDS011;52631;42.208;24.656;2023-05-29T03:25:02;7.78;;;4.30;;
65855;SDS011;52631;42.208;24.656;2023-05-29T03:27:28;7.35;;;3.55;;
65855;SDS011;52631;42.208;24.656;2023-05-29T03:29:54;7.75;;;3.90;;
65855;SDS011;52631;42.208;24.656;2023-05-29T03:32:20;7.38;;;3.97;;
65855;SDS011;52631;42.208;24.656;2023-05-29T03:34:45;7.03;;;4.07;;
65855;SDS011;52631;42.208;24.656;2023-05-29T03:37:13;9.00;;;4.10;;
65855;SDS011;52631;42.208;24.656;2023-05-29T03:39:38;11.38;;;3.83;;
65855;SDS011;52631;42.208;24.656;2023-05-29T03:42:04;9.90;;;4.05;;
65855;SDS011;52631;42.208;24.656;2023-05-29T03:44:30;8.23;;;4.10;;
65855;SDS011;52631;42.208;24.656;2023-05-29T03:46:55;8.82;;;3.55;;
65855;SDS011;52631;42.208;24.656;2023-05-29T03:49:21;6.88;;;3.45;;
65855;SDS011;52631;42.208;24.656;2023-05-29T03:51:46;11.40;;;4.25;;
65855;SDS011;52631;42.208;24.656;2023-05-29T03:54:12;9.43;;;4.63;;
65855;SDS011;52631;42.208;24.656;2023-05-29T03:56:37;8.73;;;4.43;;
65855;SDS011;52631;42.208;24.656;2023-05-29T03:59:03;7.72;;;4.07;;
65855;SDS011;52631;42.208;24.656;2023-05-29T04:01:28;9.35;;;4.18;;
65855;SDS011;52631;42.208;24.656;2023-05-29T04:03:54;7.78;;;3.88;;
65855;SDS011;52631;42.208;24.656;2023-05-29T04:06:19;9.23;;;4.50;;
65855;SDS011;52631;42.208;24.656;2023-05-29T04:08:45;13.38;;;4.90;;
65855;SDS011;52631;42.208;24.656;2023-05-29T04:11:10;8.68;;;4.78;;
65855;SDS011;52631;42.208;24.656;2023-05-29T04:13:37;8.25;;;4.57;;
65855;SDS011;52631;42.208;24.656;2023-05-29T04:16:02;8.82;;;4.13;;
65855;SDS011;52631;42.208;24.656;2023-05-29T04:18:28;9.50;;;4.43;;
65855;SDS011;52631;42.208;24.656;2023-05-29T04:20:54;11.38;;;5.20;;
65855;SDS011;52631;42.208;24.656;2023-05-29T04:23:19;8.07;;;4.30;;
65855;SDS011;52631;42.208;24.656;2023-05-29T04:25:45;8.32;;;4.60;;
65855;SDS011;52631;42.208;24.656;2023-05-29T04:28:11;7.32;;;4.53;;
65855;SDS011;52631;42.208;24.656;2023-05-29T04:30:36;8.32;;;4.68;;
65855;SDS011;52631;42.208;24.656;2023-05-29T04:33:04;7.95;;;4.13;;
65855;SDS011;52631;42.208;24.656;2023-05-29T04:35:29;9.68;;;4.70;;
65855;SDS011;52631;42.208;24.656;2023-05-29T04:37:55;8.65;;;4.50;;
65855;SDS011;52631;42.208;24.656;2023-05-29T04:40:21;9.60;;;4.05;;
65855;SDS011;52631;42.208;24.656;2023-05-29T04:42:47;8.55;;;4.63;;
65855;SDS011;52631;42.208;24.656;2023-05-29T04:45:13;7.68;;;4.30;;
65855;SDS011;52631;42.208;24.656;2023-05-29T04:47:39;9.25;;;4.97;;
65855;SDS011;52631;42.208;24.656;2023-05-29T04:50:15;8.13;;;4.13;;
65855;SDS011;52631;42.208;24.656;2023-05-29T04:52:41;8.60;;;4.30;;
65855;SDS011;52631;42.208;24.656;2023-05-29T04:55:08;8.27;;;4.28;;
65855;SDS011;52631;42.208;24.656;2023-05-29T04:57:34;18.05;;;4.93;;
65855;SDS011;52631;42.208;24.656;2023-05-29T04:59:59;11.40;;;4.53;;
65855;SDS011;52631;42.208;24.656;2023-05-29T05:02:25;7.75;;;4.28;;
65855;SDS011;52631;42.208;24.656;2023-05-29T05:04:50;6.72;;;4.20;;
65855;SDS011;52631;42.208;24.656;2023-05-29T05:07:16;9.70;;;4.03;;
65855;SDS011;52631;42.208;24.656;2023-05-29T05:09:42;6.13;;;3.65;;
65855;SDS011;52631;42.208;24.656;2023-05-29T05:12:07;8.70;;;4.78;;
65855;SDS011;52631;42.208;24.656;2023-05-29T05:14:33;7.05;;;4.10;;
65855;SDS011;52631;42.208;24.656;2023-05-29T05:16:59;6.18;;;3.85;;
65855;SDS011;52631;42.208;24.656;2023-05-29T05:19:24;8.50;;;4.15;;
65855;SDS011;52631;42.208;24.656;2023-05-29T05:21:50;12.32;;;4.70;;
65855;SDS011;52631;42.208;24.656;2023-05-29T05:24:16;20.10;;;4.78;;
65855;SDS011;52631;42.208;24.656;2023-05-29T05:26:41;7.13;;;3.83;;
65855;SDS011;52631;42.208;24.656;2023-05-29T05:29:06;11.15;;;4.55;;
65855;SDS011;52631;42.208;24.656;2023-05-29T05:31:32;7.13;;;4.15;;
65855;SDS011;52631;42.208;24.656;2023-05-29T05:33:57;9.43;;;4.68;;
65855;SDS011;52631;42.208;24.656;2023-05-29T05:36:23;10.98;;;4.75;;
65855;SDS011;52631;42.208;24.656;2023-05-29T05:38:48;7.72;;;3.83;;
65855;SDS011;52631;42.208;24.656;2023-05-29T05:41:14;9.10;;;4.50;;
65855;SDS011;52631;42.208;24.656;2023-05-29T05:43:40;7.43;;;4.20;;
65855;SDS011;52631;42.208;24.656;2023-05-29T05:46:05;9.73;;;4.40;;
65855;SDS011;52631;42.208;24.656;2023-05-29T05:48:30;10.93;;;4.63;;
65855;SDS011;52631;42.208;24.656;2023-05-29T05:50:56;7.72;;;4.45;;
65855;SDS011;52631;42.208;24.656;2023-05-29T05:53:21;8.55;;;4.60;;
65855;SDS011;52631;42.208;24.656;2023-05-29T05:55:47;8.65;;;4.53;;
65855;SDS011;52631;42.208;24.656;2023-05-29T05:58:12;9.10;;;4.60;;
65855;SDS011;52631;42.208;24.656;2023-05-29T06:00:39;8.75;;;4.65;;
65855;SDS011;52631;42.208;24.656;2023-05-29T06:03:05;8.73;;;4.65;;
65855;SDS011;52631;42.208;24.656;2023-05-29T06:05:30;8.88;;;5.00;;
65855;SDS011;52631;42.208;24.656;2023-05-29T06:07:56;9.15;;;4.63;;
65855;SDS011;52631;42.208;24.656;2023-05-29T06:10:22;6.28;;;3.90;;
65855;SDS011;52631;42.208;24.656;2023-05-29T06:12:47;11.85;;;4.68;;
65855;SDS011;52631;42.208;24.656;2023-05-29T06:15:13;8.45;;;4.95;;
65855;SDS011;52631;42.208;24.656;2023-05-29T06:17:38;6.30;;;4.00;;
65855;SDS011;52631;42.208;24.656;2023-05-29T06:20:04;9.43;;;4.72;;
65855;SDS011;52631;42.208;24.656;2023-05-29T06:22:35;7.50;;;3.97;;
65855;SDS011;52631;42.208;24.656;2023-05-29T06:25:01;8.15;;;4.25;;
65855;SDS011;52631;42.208;24.656;2023-05-29T06:27:26;7.30;;;4.05;;
65855;SDS011;52631;42.208;24.656;2023-05-29T06:29:52;7.43;;;3.97;;
65855;SDS011;52631;42.208;24.656;2023-05-29T06:32:17;7.30;;;3.95;;
65855;SDS011;52631;42.208;24.656;2023-05-29T06:34:43;10.15;;;4.28;;
65855;SDS011;52631;42.208;24.656;2023-05-29T06:37:08;7.30;;;4.10;;
65855;SDS011;52631;42.208;24.656;2023-05-29T06:39:34;6.97;;;4.30;;
65855;SDS011;52631;42.208;24.656;2023-05-29T06:41:59;8.30;;;3.70;;
65855;SDS011;52631;42.208;24.656;2023-05-29T06:44:26;7.47;;;3.88;;
65855;SDS011;52631;42.208;24.656;2023-05-29T06:46:52;9.20;;;3.63;;
65855;SDS011;52631;42.208;24.656;2023-05-29T06:49:17;6.43;;;3.83;;
65855;SDS011;52631;42.208;24.656;2023-05-29T06:51:43;8.27;;;4.25;;
65855;SDS011;52631;42.208;24.656;2023-05-29T06:54:09;6.32;;;4.30;;
65855;SDS011;52631;42.208;24.656;2023-05-29T06:56:35;8.07;;;4.18;;
65855;SDS011;52631;42.208;24.656;2023-05-29T06:59:00;8.07;;;4.07;;
65855;SDS011;52631;42.208;24.656;2023-05-29T07:01:25;10.30;;;4.50;;
65855;SDS011;52631;42.208;24.656;2023-05-29T07:03:52;8.05;;;4.25;;
65855;SDS011;52631;42.208;24.656;2023-05-29T07:06:18;8.80;;;4.30;;
65855;SDS011;52631;42.208;24.656;2023-05-29T07:08:43;8.18;;;4.32;;
65855;SDS011;52631;42.208;24.656;2023-05-29T07:11:09;5.97;;;3.72;;
65855;SDS011;52631;42.208;24.656;2023-05-29T07:13:34;6.15;;;3.90;;
65855;SDS011;52631;42.208;24.656;2023-05-29T07:16:00;6.93;;;3.80;;
65855;SDS011;52631;42.208;24.656;2023-05-29T07:18:27;9.82;;;4.30;;
65855;SDS011;52631;42.208;24.656;2023-05-29T07:20:53;5.55;;;3.50;;
65855;SDS011;52631;42.208;24.656;2023-05-29T07:23:20;6.20;;;3.80;;
65855;SDS011;52631;42.208;24.656;2023-05-29T07:25:46;10.93;;;4.72;;
65855;SDS011;52631;42.208;24.656;2023-05-29T07:28:12;7.15;;;4.15;;
65855;SDS011;52631;42.208;24.656;2023-05-29T07:30:37;7.50;;;3.95;;
65855;SDS011;52631;42.208;24.656;2023-05-29T07:33:02;9.55;;;4.32;;
65855;SDS011;52631;42.208;24.656;2023-05-29T07:35:28;7.82;;;3.90;;
65855;SDS011;52631;42.208;24.656;2023-05-29T07:37:53;7.47;;;4.38;;
65855;SDS011;52631;42.208;24.656;2023-05-29T07:40:19;7.15;;;4.05;;
65855;SDS011;52631;42.208;24.656;2023-05-29T07:42:45;6.07;;;3.70;;
65855;SDS011;52631;42.208;24.656;2023-05-29T07:45:10;6.72;;;3.70;;
65855;SDS011;52631;42.208;24.656;2023-05-29T07:47:36;8.00;;;4.22;;
65855;SDS011;52631;42.208;24.656;2023-05-29T07:50:01;7.60;;;3.75;;
65855;SDS011;52631;42.208;24.656;2023-05-29T07:52:27;5.43;;;4.00;;
65855;SDS011;52631;42.208;24.656;2023-05-29T07:54:53;10.93;;;4.10;;
65855;SDS011;52631;42.208;24.656;2023-05-29T07:57:19;8.95;;;4.10;;
65855;SDS011;52631;42.208;24.656;2023-05-29T07:59:45;5.25;;;3.00;;
65855;SDS011;52631;42.208;24.656;2023-05-29T08:02:14;6.72;;;3.08;;
65855;SDS011;52631;42.208;24.656;2023-05-29T08:04:40;6.72;;;3.10;;
65855;SDS011;52631;42.208;24.656;2023-05-29T08:07:06;6.22;;;2.60;;
65855;SDS011;52631;42.208;24.656;2023-05-29T08:09:31;5.25;;;2.75;;
65855;SDS011;52631;42.208;24.656;2023-05-29T08:11:57;4.72;;;2.78;;
65855;SDS011;52631;42.208;24.656;2023-05-29T08:14:25;6.97;;;3.25;;
65855;SDS011;52631;42.208;24.656;2023-05-29T08:16:51;5.63;;;3.05;;
65855;SDS011;52631;42.208;24.656;2023-05-29T08:19:17;7.72;;;3.95;;
65855;SDS011;52631;42.208;24.656;2023-05-29T08:21:42;4.78;;;3.17;;
65855;SDS011;52631;42.208;24.656;2023-05-29T08:24:08;6.97;;;2.80;;
65855;SDS011;52631;42.208;24.656;2023-05-29T08:26:34;6.50;;;3.20;;
65855;SDS011;52631;42.208;24.656;2023-05-29T08:29:00;4.93;;;2.90;;
65855;SDS011;52631;42.208;24.656;2023-05-29T08:31:26;25.80;;;3.83;;
65855;SDS011;52631;42.208;24.656;2023-05-29T08:33:52;5.25;;;2.92;;
65855;SDS011;52631;42.208;24.656;2023-05-29T08:36:18;4.57;;;2.67;;
65855;SDS011;52631;42.208;24.656;2023-05-29T08:38:46;6.20;;;2.90;;
65855;SDS011;52631;42.208;24.656;2023-05-29T08:41:14;6.15;;;2.97;;
65855;SDS011;52631;42.208;24.656;2023-05-29T08:43:44;8.02;;;3.00;;
65855;SDS011;52631;42.208;24.656;2023-05-29T08:46:10;5.03;;;3.38;;
65855;SDS011;52631;42.208;24.656;2023-05-29T08:48:38;6.68;;;3.17;;
65855;SDS011;52631;42.208;24.656;2023-05-29T08:51:05;5.82;;;3.10;;
65855;SDS011;52631;42.208;24.656;2023-05-29T08:53:32;7.88;;;3.15;;
65855;SDS011;52631;42.208;24.656;2023-05-29T08:55:58;7.80;;;3.20;;
65855;SDS011;52631;42.208;24.656;2023-05-29T08:58:25;6.00;;;2.92;;
65855;SDS011;52631;42.208;24.656;2023-05-29T09:00:51;5.75;;;3.38;;
65855;SDS011;52631;42.208;24.656;2023-05-29T09:03:17;5.82;;;3.10;;
65855;SDS011;52631;42.208;24.656;2023-05-29T09:05:43;4.75;;;3.13;;
65855;SDS011;52631;42.208;24.656;2023-05-29T09:08:09;6.22;;;3.30;;
65855;SDS011;52631;42.208;24.656;2023-05-29T09:10:38;6.32;;;2.90;;
65855;SDS011;52631;42.208;24.656;2023-05-29T09:13:06;4.83;;;3.33;;
65855;SDS011;52631;42.208;24.656;2023-05-29T09:15:34;6.47;;;3.22;;
65855;SDS011;52631;42.208;24.656;2023-05-29T09:18:00;7.45;;;3.40;;
65855;SDS011;52631;42.208;24.656;2023-05-29T09:20:26;4.97;;;2.85;;
65855;SDS011;52631;42.208;24.656;2023-05-29T09:22:59;6.50;;;3.20;;
65855;SDS011;52631;42.208;24.656;2023-05-29T09:25:32;5.30;;;3.40;;
65855;SDS011;52631;42.208;24.656;2023-05-29T09:28:02;6.00;;;3.47;;
65855;SDS011;52631;42.208;24.656;2023-05-29T09:30:37;5.43;;;3.40;;
65855;SDS011;52631;42.208;24.656;2023-05-29T09:33:10;6.75;;;3.15;;
65855;SDS011;52631;42.208;24.656;2023-05-29T09:35:37;8.27;;;3.60;;
65855;SDS011;52631;42.208;24.656;2023-05-29T09:38:04;6.50;;;3.42;;
65855;SDS011;52631;42.208;24.656;2023-05-29T09:40:34;9.70;;;3.38;;
65855;SDS011;52631;42.208;24.656;2023-05-29T09:43:04;7.28;;;2.88;;
65855;SDS011;52631;42.208;24.656;2023-05-29T09:45:42;6.43;;;3.08;;
65855;SDS011;52631;42.208;24.656;2023-05-29T09:50:42;5.53;;;3.95;;
65855;SDS011;52631;42.208;24.656;2023-05-29T09:58:16;8.68;;;3.70;;
65855;SDS011;52631;42.208;24.656;2023-05-29T10:00:43;5.00;;;3.30;;
65855;SDS011;52631;42.208;24.656;2023-05-29T10:03:09;6.80;;;3.60;;
65855;SDS011;52631;42.208;24.656;2023-05-29T10:05:49;6.20;;;3.42;;
65855;SDS011;52631;42.208;24.656;2023-05-29T10:08:18;6.72;;;3.58;;
65855;SDS011;52631;42.208;24.656;2023-05-29T10:10:45;6.95;;;3.85;;
65855;SDS011;52631;42.208;24.656;2023-05-29T10:13:14;7.95;;;3.42;;
65855;SDS011;52631;42.208;24.656;2023-05-29T10:16:00;5.47;;;3.17;;
65855;SDS011;52631;42.208;24.656;2023-05-29T10:18:27;6.20;;;3.33;;
65855;SDS011;52631;42.208;24.656;2023-05-29T10:20:57;6.00;;;3.72;;
65855;SDS011;52631;42.208;24.656;2023-05-29T10:23:24;4.80;;;3.13;;
65855;SDS011;52631;42.208;24.656;2023-05-29T10:25:54;6.80;;;3.20;;
65855;SDS011;52631;42.208;24.656;2023-05-29T10:28:24;6.28;;;3.42;;
65855;SDS011;52631;42.208;24.656;2023-05-29T10:36:18;5.47;;;3.25;;
65855;SDS011;52631;42.208;24.656;2023-05-29T10:38:46;5.70;;;2.92;;
65855;SDS011;52631;42.208;24.656;2023-05-29T10:43:54;4.90;;;2.55;;
65855;SDS011;52631;42.208;24.656;2023-05-29T10:46:20;5.95;;;2.40;;
65855;SDS011;52631;42.208;24.656;2023-05-29T10:48:49;4.22;;;2.60;;
65855;SDS011;52631;42.208;24.656;2023-05-29T10:51:24;3.92;;;2.50;;
65855;SDS011;52631;42.208;24.656;2023-05-29T10:53:51;7.30;;;2.33;;
65855;SDS011;52631;42.208;24.656;2023-05-29T10:56:21;4.35;;;2.30;;
65855;SDS011;52631;42.208;24.656;2023-05-29T10:58:54;4.88;;;2.60;;
65855;SDS011;52631;42.208;24.656;2023-05-29T11:01:21;6.70;;;2.85;;
65855;SDS011;52631;42.208;24.656;2023-05-29T11:03:47;4.00;;;2.53;;
65855;SDS011;52631;42.208;24.656;2023-05-29T11:06:18;5.68;;;3.13;;
65855;SDS011;52631;42.208;24.656;2023-05-29T11:08:47;4.60;;;2.53;;
65855;SDS011;52631;42.208;24.656;2023-05-29T11:14:01;4.57;;;2.70;;
65855;SDS011;52631;42.208;24.656;2023-05-29T11:18:58;5.35;;;2.88;;
65855;SDS011;52631;42.208;24.656;2023-05-29T11:23:50;4.03;;;2.53;;
65855;SDS011;52631;42.208;24.656;2023-05-29T11:26:17;5.82;;;2.58;;
65855;SDS011;52631;42.208;24.656;2023-05-29T11:28:43;3.67;;;2.30;;
65855;SDS011;52631;42.208;24.656;2023-05-29T11:31:08;4.65;;;2.47;;
65855;SDS011;52631;42.208;24.656;2023-05-29T11:33:35;4.85;;;2.53;;
65855;SDS011;52631;42.208;24.656;2023-05-29T11:36:05;6.38;;;2.90;;
65855;SDS011;52631;42.208;24.656;2023-05-29T11:38:31;7.70;;;2.60;;
65855;SDS011;52631;42.208;24.656;2023-05-29T11:40:57;4.28;;;2.45;;
65855;SDS011;52631;42.208;24.656;2023-05-29T11:43:23;6.68;;;2.63;;
65855;SDS011;52631;42.208;24.656;2023-05-29T11:45:49;5.10;;;2.70;;
65855;SDS011;52631;42.208;24.656;2023-05-29T11:48:15;3.50;;;2.03;;
65855;SDS011;52631;42.208;24.656;2023-05-29T11:50:40;4.25;;;2.45;;
65855;SDS011;52631;42.208;24.656;2023-05-29T11:53:06;4.03;;;2.40;;
65855;SDS011;52631;42.208;24.656;2023-05-29T11:55:33;5.60;;;2.47;;
65855;SDS011;52631;42.208;24.656;2023-05-29T11:57:59;5.70;;;2.50;;
65855;SDS011;52631;42.208;24.656;2023-05-29T12:00:26;4.72;;;2.83;;
65855;SDS011;52631;42.208;24.656;2023-05-29T12:02:57;5.97;;;2.53;;
65855;SDS011;52631;42.208;24.656;2023-05-29T12:05:22;3.78;;;2.42;;
65855;SDS011;52631;42.208;24.656;2023-05-29T12:07:49;4.15;;;2.40;;
65855;SDS011;52631;42.208;24.656;2023-05-29T12:10:17;5.95;;;2.88;;
65855;SDS011;52631;42.208;24.656;2023-05-29T12:12:53;4.25;;;2.38;;
65855;SDS011;52631;42.208;24.656;2023-05-29T12:15:19;6.35;;;2.50;;
65855;SDS011;52631;42.208;24.656;2023-05-29T12:17:46;4.95;;;2.28;;
65855;SDS011;52631;42.208;24.656;2023-05-29T12:20:13;4.40;;;2.60;;
65855;SDS011;52631;42.208;24.656;2023-05-29T12:22:40;6.25;;;2.97;;
65855;SDS011;52631;42.208;24.656;2023-05-29T12:25:07;4.72;;;2.55;;
65855;SDS011;52631;42.208;24.656;2023-05-29T12:27:40;3.42;;;2.22;;
65855;SDS011;52631;42.208;24.656;2023-05-29T12:30:10;3.47;;;2.10;;
65855;SDS011;52631;42.208;24.656;2023-05-29T12:32:44;4.05;;;1.83;;
65855;SDS011;52631;42.208;24.656;2023-05-29T12:35:13;4.75;;;2.25;;
65855;SDS011;52631;42.208;24.656;2023-05-29T12:37:58;4.93;;;2.60;;
65855;SDS011;52631;42.208;24.656;2023-05-29T12:40:26;3.60;;;2.15;;
65855;SDS011;52631;42.208;24.656;2023-05-29T12:42:56;3.65;;;2.08;;
65855;SDS011;52631;42.208;24.656;2023-05-29T12:45:24;3.45;;;2.17;;
65855;SDS011;52631;42.208;24.656;2023-05-29T12:53:08;3.97;;;1.90;;
65855;SDS011;52631;42.208;24.656;2023-05-29T12:55:41;4.38;;;2.20;;
65855;SDS011;52631;42.208;24.656;2023-05-29T12:58:08;5.18;;;2.20;;
65855;SDS011;52631;42.208;24.656;2023-05-29T13:00:36;5.57;;;2.30;;
65855;SDS011;52631;42.208;24.656;2023-05-29T13:03:03;3.60;;;1.60;;
65855;SDS011;52631;42.208;24.656;2023-05-29T13:05:29;4.10;;;1.98;;
65855;SDS011;52631;42.208;24.656;2023-05-29T13:07:54;6.10;;;2.05;;
65855;SDS011;52631;42.208;24.656;2023-05-29T13:10:20;5.13;;;1.90;;
65855;SDS011;52631;42.208;24.656;2023-05-29T13:12:46;4.13;;;2.10;;
65855;SDS011;52631;42.208;24.656;2023-05-29T13:15:13;4.82;;;2.00;;
65855;SDS011;52631;42.208;24.656;2023-05-29T13:17:39;3.10;;;1.65;;
65855;SDS011;52631;42.208;24.656;2023-05-29T13:20:07;3.40;;;2.03;;
65855;SDS011;52631;42.208;24.656;2023-05-29T13:22:35;3.08;;;1.58;;
65855;SDS011;52631;42.208;24.656;2023-05-29T13:25:00;4.22;;;1.80;;
65855;SDS011;52631;42.208;24.656;2023-05-29T13:27:26;3.85;;;1.92;;
65855;SDS011;52631;42.208;24.656;2023-05-29T13:29:52;3.08;;;1.50;;
65855;SDS011;52631;42.208;24.656;2023-05-29T13:32:18;3.25;;;1.40;;
65855;SDS011;52631;42.208;24.656;2023-05-29T13:34:44;3.53;;;1.75;;
65855;SDS011;52631;42.208;24.656;2023-05-29T13:37:10;3.78;;;2.05;;
65855;SDS011;52631;42.208;24.656;2023-05-29T13:39:35;3.63;;;1.67;;
65855;SDS011;52631;42.208;24.656;2023-05-29T13:42:01;3.67;;;1.60;;
65855;SDS011;52631;42.208;24.656;2023-05-29T13:44:26;6.47;;;3.70;;
65855;SDS011;52631;42.208;24.656;2023-05-29T13:46:52;6.97;;;3.53;;
65855;SDS011;52631;42.208;24.656;2023-05-29T13:49:18;22.95;;;11.05;;
65855;SDS011;52631;42.208;24.656;2023-05-29T13:51:44;4.32;;;1.92;;
65855;SDS011;52631;42.208;24.656;2023-05-29T13:54:11;2.70;;;1.60;;
65855;SDS011;52631;42.208;24.656;2023-05-29T13:56:37;4.22;;;1.90;;
65855;SDS011;52631;42.208;24.656;2023-05-29T13:59:02;3.92;;;2.53;;
65855;SDS011;52631;42.208;24.656;2023-05-29T14:01:31;8.77;;;3.33;;
65855;SDS011;52631;42.208;24.656;2023-05-29T14:03:57;5.85;;;2.47;;
65855;SDS011;52631;42.208;24.656;2023-05-29T14:06:22;4.60;;;2.00;;
65855;SDS011;52631;42.208;24.656;2023-05-29T14:08:47;20.15;;;9.57;;
65855;SDS011;52631;42.208;24.656;2023-05-29T14:11:13;6.90;;;3.10;;
65855;SDS011;52631;42.208;24.656;2023-05-29T14:13:38;8.00;;;3.97;;
65855;SDS011;52631;42.208;24.656;2023-05-29T14:16:04;6.45;;;2.78;;
65855;SDS011;52631;42.208;24.656;2023-05-29T14:18:30;6.05;;;2.83;;
65855;SDS011;52631;42.208;24.656;2023-05-29T14:20:55;7.10;;;3.17;;
65855;SDS011;52631;42.208;24.656;2023-05-29T14:23:21;4.50;;;2.30;;
65855;SDS011;52631;42.208;24.656;2023-05-29T14:25:46;14.25;;;5.65;;
65855;SDS011;52631;42.208;24.656;2023-05-29T14:28:12;9.68;;;3.63;;
65855;SDS011;52631;42.208;24.656;2023-05-29T14:30:41;9.18;;;3.90;;
65855;SDS011;52631;42.208;24.656;2023-05-29T14:33:06;17.52;;;7.03;;
65855;SDS011;52631;42.208;24.656;2023-05-29T14:35:32;10.27;;;4.85;;
65855;SDS011;52631;42.208;24.656;2023-05-29T14:37:57;12.93;;;6.72;;
65855;SDS011;52631;42.208;24.656;2023-05-29T14:40:23;7.50;;;3.95;;
65855;SDS011;52631;42.208;24.656;2023-05-29T14:42:48;9.65;;;4.10;;
65855;SDS011;52631;42.208;24.656;2023-05-29T14:45:14;7.00;;;4.18;;
65855;SDS011;52631;42.208;24.656;2023-05-29T14:47:40;9.65;;;3.67;;
65855;SDS011;52631;42.208;24.656;2023-05-29T14:50:06;7.68;;;3.78;;
65855;SDS011;52631;42.208;24.656;2023-05-29T14:52:31;6.68;;;3.70;;
65855;SDS011;52631;42.208;24.656;2023-05-29T14:54:57;9.07;;;4.05;;
65855;SDS011;52631;42.208;24.656;2023-05-29T14:57:23;9.05;;;4.07;;
65855;SDS011;52631;42.208;24.656;2023-05-29T14:59:48;7.47;;;4.82;;
65855;SDS011;52631;42.208;24.656;2023-05-29T15:02:15;9.35;;;4.40;;
65855;SDS011;52631;42.208;24.656;2023-05-29T15:04:40;7.35;;;4.80;;
65855;SDS011;52631;42.208;24.656;2023-05-29T15:07:06;8.48;;;4.40;;